sensor_id;sensor_type;location;lat;lon;timestamp;P1;durP1;ratioP1;P2;durP2;ratioP2
75584;SDS011;64162;53.508;10.476;2023-03-05T00:01:10;201.52;;;193.18;;
75584;SDS011;64162;53.508;10.476;2023-03-05T00:03:41;220.68;;;212.00;;
75584;SDS011;64162;53.508;10.476;2023-03-05T00:06:07;212.82;;;204.00;;
75584;SDS011;64162;53.508;10.476;2023-03-05T00:08:34;217.45;;;208.68;;
75584;SDS011;64162;53.508;10.476;2023-03-05T00:11:02;180.27;;;172.55;;
75584;SDS011;64162;53.508;10.476;2023-03-05T00:13:33;294.55;;;282.05;;
75584;SDS011;64162;53.508;10.476;2023-03-05T00:16:04;238.40;;;228.70;;
75584;SDS011;64162;53.508;10.476;2023-03-05T00:18:32;239.48;;;230.07;;
75584;SDS011;64162;53.508;10.476;2023-03-05T00:20:59;180.52;;;173.25;;
75584;SDS011;64162;53.508;10.476;2023-03-05T00:23:25;204.95;;;196.85;;
75584;SDS011;64162;53.508;10.476;2023-03-05T00:25:52;255.57;;;245.40;;
75584;SDS011;64162;53.508;10.476;2023-03-05T00:28:19;227.10;;;218.13;;
75584;SDS011;64162;53.508;10.476;2023-03-05T00:30:46;166.93;;;159.82;;
75584;SDS011;64162;53.508;10.476;2023-03-05T00:33:13;334.65;;;320.40;;
75584;SDS011;64162;53.508;10.476;2023-03-05T00:35:41;178.43;;;171.30;;
75584;SDS011;64162;53.508;10.476;2023-03-05T00:38:09;294.10;;;281.13;;
75584;SDS011;64162;53.508;10.476;2023-03-05T00:40:36;211.55;;;202.82;;
75584;SDS011;64162;53.508;10.476;2023-03-05T00:43:04;193.50;;;185.82;;
75584;SDS011;64162;53.508;10.476;2023-03-05T00:45:31;233.98;;;224.95;;
75584;SDS011;64162;53.508;10.476;2023-03-05T00:47:59;280.90;;;268.98;;
75584;SDS011;64162;53.508;10.476;2023-03-05T00:50:26;185.82;;;178.10;;
75584;SDS011;64162;53.508;10.476;2023-03-05T00:52:53;234.40;;;224.60;;
75584;SDS011;64162;53.508;10.476;2023-03-05T00:55:20;217.23;;;208.50;;
75584;SDS011;64162;53.508;10.476;2023-03-05T00:57:47;246.73;;;236.50;;
75584;SDS011;64162;53.508;10.476;2023-03-05T01:00:13;326.08;;;312.00;;
75584;SDS011;64162;53.508;10.476;2023-03-05T01:02:41;125.22;;;119.78;;
75584;SDS011;64162;53.508;10.476;2023-03-05T01:05:10;185.70;;;178.45;;
75584;SDS011;64162;53.508;10.476;2023-03-05T01:07:37;324.83;;;310.63;;
75584;SDS011;64162;53.508;10.476;2023-03-05T01:10:05;212.13;;;203.13;;
75584;SDS011;64162;53.508;10.476;2023-03-05T01:14:59;170.20;;;163.00;;
75584;SDS011;64162;53.508;10.476;2023-03-05T01:17:26;159.18;;;152.30;;
75584;SDS011;64162;53.508;10.476;2023-03-05T01:19:52;125.82;;;120.30;;
75584;SDS011;64162;53.508;10.476;2023-03-05T01:22:19;170.35;;;162.93;;
75584;SDS011;64162;53.508;10.476;2023-03-05T01:24:45;149.95;;;144.02;;
75584;SDS011;64162;53.508;10.476;2023-03-05T01:27:12;125.22;;;119.13;;
75584;SDS011;64162;53.508;10.476;2023-03-05T01:29:39;158.02;;;151.60;;
75584;SDS011;64162;53.508;10.476;2023-03-05T01:32:05;147.38;;;141.30;;
75584;SDS011;64162;53.508;10.476;2023-03-05T01:34:32;140.68;;;134.90;;
75584;SDS011;64162;53.508;10.476;2023-03-05T01:36:58;186.65;;;179.38;;
75584;SDS011;64162;53.508;10.476;2023-03-05T01:39:25;108.22;;;103.43;;
75584;SDS011;64162;53.508;10.476;2023-03-05T01:41:51;153.45;;;146.88;;
75584;SDS011;64162;53.508;10.476;2023-03-05T01:44:22;127.53;;;121.72;;
75584;SDS011;64162;53.508;10.476;2023-03-05T01:46:53;129.55;;;124.38;;
75584;SDS011;64162;53.508;10.476;2023-03-05T01:49:27;116.72;;;111.70;;
75584;SDS011;64162;53.508;10.476;2023-03-05T01:52:04;155.13;;;148.38;;
75584;SDS011;64162;53.508;10.476;2023-03-05T01:54:36;255.00;;;244.93;;
75584;SDS011;64162;53.508;10.476;2023-03-05T01:57:09;126.07;;;120.72;;
75584;SDS011;64162;53.508;10.476;2023-03-05T01:59:40;120.57;;;115.38;;
75584;SDS011;64162;53.508;10.476;2023-03-05T02:02:10;84.90;;;81.00;;
75584;SDS011;64162;53.508;10.476;2023-03-05T02:04:42;121.20;;;116.13;;
75584;SDS011;64162;53.508;10.476;2023-03-05T02:07:36;162.57;;;155.88;;
75584;SDS011;64162;53.508;10.476;2023-03-05T02:10:18;92.18;;;88.18;;
75584;SDS011;64162;53.508;10.476;2023-03-05T02:12:47;163.77;;;156.90;;
75584;SDS011;64162;53.508;10.476;2023-03-05T02:15:15;211.90;;;202.77;;
75584;SDS011;64162;53.508;10.476;2023-03-05T02:17:42;96.30;;;91.85;;
75584;SDS011;64162;53.508;10.476;2023-03-05T02:20:11;98.80;;;93.72;;
75584;SDS011;64162;53.508;10.476;2023-03-05T02:22:40;111.43;;;106.45;;
75584;SDS011;64162;53.508;10.476;2023-03-05T02:25:25;75.18;;;71.82;;
75584;SDS011;64162;53.508;10.476;2023-03-05T02:30:39;96.22;;;91.20;;
75584;SDS011;64162;53.508;10.476;2023-03-05T02:33:06;80.40;;;77.07;;
75584;SDS011;64162;53.508;10.476;2023-03-05T02:35:33;103.63;;;98.53;;
75584;SDS011;64162;53.508;10.476;2023-03-05T02:38:01;234.38;;;224.45;;
75584;SDS011;64162;53.508;10.476;2023-03-05T02:40:27;224.55;;;214.60;;
75584;SDS011;64162;53.508;10.476;2023-03-05T02:42:54;162.18;;;155.35;;
75584;SDS011;64162;53.508;10.476;2023-03-05T02:45:20;167.73;;;160.50;;
75584;SDS011;64162;53.508;10.476;2023-03-05T02:47:47;243.07;;;233.55;;
75584;SDS011;64162;53.508;10.476;2023-03-05T02:50:13;165.00;;;157.98;;
75584;SDS011;64162;53.508;10.476;2023-03-05T02:52:40;128.15;;;122.53;;
75584;SDS011;64162;53.508;10.476;2023-03-05T02:55:11;146.65;;;140.15;;
75584;SDS011;64162;53.508;10.476;2023-03-05T02:57:38;150.10;;;144.00;;
75584;SDS011;64162;53.508;10.476;2023-03-05T03:00:05;148.85;;;142.45;;
75584;SDS011;64162;53.508;10.476;2023-03-05T03:02:32;172.60;;;164.50;;
75584;SDS011;64162;53.508;10.476;2023-03-05T03:04:59;142.32;;;136.30;;
75584;SDS011;64162;53.508;10.476;2023-03-05T03:07:26;108.50;;;103.97;;
75584;SDS011;64162;53.508;10.476;2023-03-05T03:09:52;120.28;;;115.35;;
75584;SDS011;64162;53.508;10.476;2023-03-05T03:12:19;108.03;;;103.43;;
75584;SDS011;64162;53.508;10.476;2023-03-05T03:14:45;168.07;;;161.10;;
75584;SDS011;64162;53.508;10.476;2023-03-05T03:17:13;121.88;;;116.55;;
75584;SDS011;64162;53.508;10.476;2023-03-05T03:19:42;190.32;;;182.85;;
75584;SDS011;64162;53.508;10.476;2023-03-05T03:22:09;142.77;;;136.80;;
75584;SDS011;64162;53.508;10.476;2023-03-05T03:24:37;191.05;;;183.52;;
75584;SDS011;64162;53.508;10.476;2023-03-05T03:27:05;177.65;;;170.35;;
75584;SDS011;64162;53.508;10.476;2023-03-05T03:29:32;224.73;;;215.50;;
75584;SDS011;64162;53.508;10.476;2023-03-05T03:31:59;167.57;;;160.32;;
75584;SDS011;64162;53.508;10.476;2023-03-05T03:34:25;117.28;;;112.22;;
75584;SDS011;64162;53.508;10.476;2023-03-05T03:36:52;119.40;;;113.85;;
75584;SDS011;64162;53.508;10.476;2023-03-05T03:39:19;190.82;;;183.48;;
75584;SDS011;64162;53.508;10.476;2023-03-05T03:41:47;133.77;;;127.85;;
75584;SDS011;64162;53.508;10.476;2023-03-05T03:44:16;110.78;;;105.45;;
75584;SDS011;64162;53.508;10.476;2023-03-05T03:46:44;179.70;;;171.95;;
75584;SDS011;64162;53.508;10.476;2023-03-05T03:49:19;82.05;;;78.40;;
75584;SDS011;64162;53.508;10.476;2023-03-05T03:51:48;88.72;;;84.45;;
75584;SDS011;64162;53.508;10.476;2023-03-05T03:54:16;84.82;;;80.93;;
75584;SDS011;64162;53.508;10.476;2023-03-05T03:56:43;121.13;;;115.70;;
75584;SDS011;64162;53.508;10.476;2023-03-05T03:59:11;151.60;;;145.23;;
75584;SDS011;64162;53.508;10.476;2023-03-05T04:01:38;156.05;;;150.05;;
75584;SDS011;64162;53.508;10.476;2023-03-05T04:04:05;109.13;;;104.28;;
75584;SDS011;64162;53.508;10.476;2023-03-05T04:06:32;141.73;;;134.82;;
75584;SDS011;64162;53.508;10.476;2023-03-05T04:08:59;157.07;;;150.02;;
75584;SDS011;64162;53.508;10.476;2023-03-05T04:11:25;172.20;;;165.32;;
75584;SDS011;64162;53.508;10.476;2023-03-05T04:13:53;146.43;;;140.65;;
75584;SDS011;64162;53.508;10.476;2023-03-05T04:16:20;161.52;;;154.52;;
75584;SDS011;64162;53.508;10.476;2023-03-05T04:18:47;187.30;;;180.20;;
75584;SDS011;64162;53.508;10.476;2023-03-05T04:21:13;112.57;;;108.03;;
75584;SDS011;64162;53.508;10.476;2023-03-05T04:23:40;114.10;;;109.13;;
75584;SDS011;64162;53.508;10.476;2023-03-05T04:26:06;96.78;;;92.50;;
75584;SDS011;64162;53.508;10.476;2023-03-05T04:28:33;137.32;;;131.63;;
75584;SDS011;64162;53.508;10.476;2023-03-05T04:31:00;108.72;;;104.10;;
75584;SDS011;64162;53.508;10.476;2023-03-05T04:33:27;124.43;;;119.72;;
75584;SDS011;64162;53.508;10.476;2023-03-05T04:35:53;80.13;;;76.68;;
75584;SDS011;64162;53.508;10.476;2023-03-05T04:38:20;125.03;;;119.97;;
75584;SDS011;64162;53.508;10.476;2023-03-05T04:40:46;110.90;;;106.35;;
75584;SDS011;64162;53.508;10.476;2023-03-05T04:43:13;104.07;;;99.72;;
75584;SDS011;64162;53.508;10.476;2023-03-05T04:45:40;129.85;;;124.53;;
75584;SDS011;64162;53.508;10.476;2023-03-05T04:48:08;104.30;;;99.85;;
75584;SDS011;64162;53.508;10.476;2023-03-05T04:50:36;94.00;;;89.80;;
75584;SDS011;64162;53.508;10.476;2023-03-05T04:53:03;78.45;;;74.88;;
75584;SDS011;64162;53.508;10.476;2023-03-05T04:55:30;91.85;;;87.80;;
75584;SDS011;64162;53.508;10.476;2023-03-05T04:57:57;105.50;;;100.47;;
75584;SDS011;64162;53.508;10.476;2023-03-05T05:00:23;155.98;;;149.85;;
75584;SDS011;64162;53.508;10.476;2023-03-05T05:02:50;110.20;;;105.07;;
75584;SDS011;64162;53.508;10.476;2023-03-05T05:05:18;154.88;;;148.18;;
75584;SDS011;64162;53.508;10.476;2023-03-05T05:07:47;114.40;;;108.82;;
75584;SDS011;64162;53.508;10.476;2023-03-05T05:10:13;125.40;;;119.75;;
75584;SDS011;64162;53.508;10.476;2023-03-05T05:12:41;109.30;;;104.65;;
75584;SDS011;64162;53.508;10.476;2023-03-05T05:15:08;125.95;;;120.43;;
75584;SDS011;64162;53.508;10.476;2023-03-05T05:17:35;99.25;;;94.85;;
75584;SDS011;64162;53.508;10.476;2023-03-05T05:20:02;98.25;;;93.78;;
75584;SDS011;64162;53.508;10.476;2023-03-05T05:22:31;75.35;;;71.80;;
75584;SDS011;64162;53.508;10.476;2023-03-05T05:24:58;84.85;;;81.03;;
75584;SDS011;64162;53.508;10.476;2023-03-05T05:27:25;127.32;;;121.97;;
75584;SDS011;64162;53.508;10.476;2023-03-05T05:29:51;132.27;;;126.88;;
75584;SDS011;64162;53.508;10.476;2023-03-05T05:32:19;105.68;;;101.13;;
75584;SDS011;64162;53.508;10.476;2023-03-05T05:34:47;108.18;;;103.72;;
75584;SDS011;64162;53.508;10.476;2023-03-05T05:37:14;67.22;;;64.07;;
75584;SDS011;64162;53.508;10.476;2023-03-05T05:39:40;73.03;;;69.50;;
75584;SDS011;64162;53.508;10.476;2023-03-05T05:42:07;111.47;;;106.63;;
75584;SDS011;64162;53.508;10.476;2023-03-05T05:44:33;102.50;;;98.18;;
75584;SDS011;64162;53.508;10.476;2023-03-05T05:47:00;70.40;;;67.30;;
75584;SDS011;64162;53.508;10.476;2023-03-05T05:49:27;133.23;;;127.65;;
75584;SDS011;64162;53.508;10.476;2023-03-05T05:51:53;128.07;;;122.63;;
75584;SDS011;64162;53.508;10.476;2023-03-05T05:54:20;138.30;;;132.45;;
75584;SDS011;64162;53.508;10.476;2023-03-05T05:56:47;142.38;;;135.63;;
75584;SDS011;64162;53.508;10.476;2023-03-05T05:59:14;126.07;;;120.28;;
75584;SDS011;64162;53.508;10.476;2023-03-05T06:01:40;109.72;;;104.50;;
75584;SDS011;64162;53.508;10.476;2023-03-05T06:04:07;117.93;;;112.97;;
75584;SDS011;64162;53.508;10.476;2023-03-05T06:06:33;126.30;;;120.78;;
75584;SDS011;64162;53.508;10.476;2023-03-05T06:09:00;125.93;;;119.90;;
75584;SDS011;64162;53.508;10.476;2023-03-05T06:11:27;116.15;;;111.40;;
75584;SDS011;64162;53.508;10.476;2023-03-05T06:13:53;99.18;;;95.05;;
75584;SDS011;64162;53.508;10.476;2023-03-05T06:16:21;115.97;;;111.05;;
75584;SDS011;64162;53.508;10.476;2023-03-05T06:18:49;105.78;;;100.30;;
75584;SDS011;64162;53.508;10.476;2023-03-05T06:21:17;79.30;;;75.78;;
75584;SDS011;64162;53.508;10.476;2023-03-05T06:26:13;97.85;;;93.10;;
75584;SDS011;64162;53.508;10.476;2023-03-05T06:28:41;116.47;;;111.55;;
75584;SDS011;64162;53.508;10.476;2023-03-05T06:31:09;94.93;;;90.88;;
75584;SDS011;64162;53.508;10.476;2023-03-05T06:33:40;109.15;;;103.93;;
75584;SDS011;64162;53.508;10.476;2023-03-05T06:36:08;123.03;;;117.35;;
75584;SDS011;64162;53.508;10.476;2023-03-05T06:38:36;104.45;;;99.70;;
75584;SDS011;64162;53.508;10.476;2023-03-05T06:41:04;100.35;;;95.35;;
75584;SDS011;64162;53.508;10.476;2023-03-05T06:43:37;123.30;;;117.25;;
75584;SDS011;64162;53.508;10.476;2023-03-05T06:46:06;83.25;;;79.25;;
75584;SDS011;64162;53.508;10.476;2023-03-05T06:48:35;81.10;;;76.65;;
75584;SDS011;64162;53.508;10.476;2023-03-05T06:51:02;76.35;;;72.38;;
75584;SDS011;64162;53.508;10.476;2023-03-05T06:53:29;106.43;;;101.60;;
75584;SDS011;64162;53.508;10.476;2023-03-05T06:55:56;80.47;;;76.47;;
75584;SDS011;64162;53.508;10.476;2023-03-05T06:58:22;65.75;;;62.63;;
75584;SDS011;64162;53.508;10.476;2023-03-05T07:00:50;53.95;;;50.85;;
75584;SDS011;64162;53.508;10.476;2023-03-05T07:03:16;71.07;;;67.97;;
75584;SDS011;64162;53.508;10.476;2023-03-05T07:05:43;71.90;;;68.80;;
75584;SDS011;64162;53.508;10.476;2023-03-05T07:08:09;76.63;;;73.40;;
75584;SDS011;64162;53.508;10.476;2023-03-05T07:10:37;81.07;;;76.90;;
75584;SDS011;64162;53.508;10.476;2023-03-05T07:13:05;68.00;;;65.07;;
75584;SDS011;64162;53.508;10.476;2023-03-05T07:15:32;79.25;;;76.05;;
75584;SDS011;64162;53.508;10.476;2023-03-05T07:18:02;78.88;;;75.38;;
75584;SDS011;64162;53.508;10.476;2023-03-05T07:20:29;64.63;;;61.25;;
75584;SDS011;64162;53.508;10.476;2023-03-05T07:22:55;91.20;;;87.28;;
75584;SDS011;64162;53.508;10.476;2023-03-05T07:25:22;72.75;;;69.65;;
75584;SDS011;64162;53.508;10.476;2023-03-05T07:27:49;71.20;;;68.10;;
75584;SDS011;64162;53.508;10.476;2023-03-05T07:30:16;68.85;;;65.97;;
75584;SDS011;64162;53.508;10.476;2023-03-05T07:32:43;85.15;;;81.22;;
75584;SDS011;64162;53.508;10.476;2023-03-05T07:35:09;100.18;;;96.13;;
75584;SDS011;64162;53.508;10.476;2023-03-05T07:37:36;98.65;;;94.50;;
75584;SDS011;64162;53.508;10.476;2023-03-05T07:40:03;96.97;;;92.80;;
75584;SDS011;64162;53.508;10.476;2023-03-05T07:42:30;95.20;;;90.88;;
75584;SDS011;64162;53.508;10.476;2023-03-05T07:45:08;90.75;;;87.18;;
75584;SDS011;64162;53.508;10.476;2023-03-05T07:47:35;134.48;;;129.10;;
75584;SDS011;64162;53.508;10.476;2023-03-05T07:50:02;96.90;;;92.78;;
75584;SDS011;64162;53.508;10.476;2023-03-05T07:52:29;119.88;;;114.90;;
75584;SDS011;64162;53.508;10.476;2023-03-05T07:54:56;94.35;;;90.18;;
75584;SDS011;64162;53.508;10.476;2023-03-05T07:57:22;71.93;;;69.07;;
75584;SDS011;64162;53.508;10.476;2023-03-05T07:59:49;100.25;;;96.40;;
75584;SDS011;64162;53.508;10.476;2023-03-05T08:02:15;120.10;;;115.32;;
75584;SDS011;64162;53.508;10.476;2023-03-05T08:04:44;99.35;;;95.05;;
75584;SDS011;64162;53.508;10.476;2023-03-05T08:07:12;76.70;;;73.13;;
75584;SDS011;64162;53.508;10.476;2023-03-05T08:09:40;97.90;;;93.95;;
75584;SDS011;64162;53.508;10.476;2023-03-05T08:12:08;127.53;;;122.07;;
75584;SDS011;64162;53.508;10.476;2023-03-05T08:14:35;114.03;;;109.55;;
75584;SDS011;64162;53.508;10.476;2023-03-05T08:17:03;110.20;;;105.85;;
75584;SDS011;64162;53.508;10.476;2023-03-05T08:19:31;135.20;;;129.77;;
75584;SDS011;64162;53.508;10.476;2023-03-05T08:21:58;115.90;;;111.13;;
75584;SDS011;64162;53.508;10.476;2023-03-05T08:24:25;113.85;;;109.40;;
75584;SDS011;64162;53.508;10.476;2023-03-05T08:26:55;100.75;;;96.75;;
75584;SDS011;64162;53.508;10.476;2023-03-05T08:29:23;99.60;;;95.70;;
75584;SDS011;64162;53.508;10.476;2023-03-05T08:31:50;140.05;;;134.40;;
75584;SDS011;64162;53.508;10.476;2023-03-05T08:34:19;143.52;;;137.82;;
75584;SDS011;64162;53.508;10.476;2023-03-05T08:36:46;137.40;;;131.90;;
75584;SDS011;64162;53.508;10.476;2023-03-05T08:39:12;157.93;;;151.82;;
75584;SDS011;64162;53.508;10.476;2023-03-05T08:41:39;145.75;;;139.90;;
75584;SDS011;64162;53.508;10.476;2023-03-05T08:44:06;152.10;;;146.02;;
75584;SDS011;64162;53.508;10.476;2023-03-05T08:46:32;200.43;;;192.02;;
75584;SDS011;64162;53.508;10.476;2023-03-05T08:48:59;133.95;;;128.30;;
75584;SDS011;64162;53.508;10.476;2023-03-05T08:51:26;189.88;;;182.25;;
75584;SDS011;64162;53.508;10.476;2023-03-05T08:53:53;150.15;;;143.77;;
75584;SDS011;64162;53.508;10.476;2023-03-05T08:56:21;186.73;;;179.40;;
75584;SDS011;64162;53.508;10.476;2023-03-05T08:58:48;180.63;;;173.15;;
75584;SDS011;64162;53.508;10.476;2023-03-05T09:01:14;295.38;;;282.85;;
75584;SDS011;64162;53.508;10.476;2023-03-05T09:03:41;337.13;;;323.40;;
75584;SDS011;64162;53.508;10.476;2023-03-05T09:06:08;126.22;;;121.13;;
75584;SDS011;64162;53.508;10.476;2023-03-05T09:08:40;102.85;;;98.88;;
75584;SDS011;64162;53.508;10.476;2023-03-05T09:11:07;151.05;;;144.75;;
75584;SDS011;64162;53.508;10.476;2023-03-05T09:13:35;86.00;;;82.32;;
75584;SDS011;64162;53.508;10.476;2023-03-05T09:16:03;101.05;;;96.82;;
75584;SDS011;64162;53.508;10.476;2023-03-05T09:18:31;111.05;;;106.65;;
75584;SDS011;64162;53.508;10.476;2023-03-05T09:20:59;97.97;;;94.18;;
75584;SDS011;64162;53.508;10.476;2023-03-05T09:23:32;117.70;;;113.00;;
75584;SDS011;64162;53.508;10.476;2023-03-05T09:25:59;103.80;;;99.50;;
75584;SDS011;64162;53.508;10.476;2023-03-05T09:28:26;139.30;;;133.85;;
75584;SDS011;64162;53.508;10.476;2023-03-05T09:30:52;70.82;;;67.88;;
75584;SDS011;64162;53.508;10.476;2023-03-05T09:33:20;79.53;;;76.32;;
75584;SDS011;64162;53.508;10.476;2023-03-05T09:35:46;129.00;;;123.78;;
75584;SDS011;64162;53.508;10.476;2023-03-05T09:38:14;232.55;;;223.13;;
75584;SDS011;64162;53.508;10.476;2023-03-05T09:40:43;168.68;;;161.98;;
75584;SDS011;64162;53.508;10.476;2023-03-05T09:43:19;183.38;;;175.95;;
75584;SDS011;64162;53.508;10.476;2023-03-05T09:48:47;37.53;;;35.83;;
75584;SDS011;64162;53.508;10.476;2023-03-05T09:51:23;41.83;;;40.03;;
75584;SDS011;64162;53.508;10.476;2023-03-05T09:53:56;47.95;;;45.95;;
75584;SDS011;64162;53.508;10.476;2023-03-05T09:56:28;42.60;;;40.33;;
75584;SDS011;64162;53.508;10.476;2023-03-05T09:59:19;43.85;;;41.28;;
75584;SDS011;64162;53.508;10.476;2023-03-05T10:01:49;40.45;;;38.67;;
75584;SDS011;64162;53.508;10.476;2023-03-05T10:04:24;40.40;;;38.67;;
75584;SDS011;64162;53.508;10.476;2023-03-05T10:07:00;42.15;;;40.30;;
75584;SDS011;64162;53.508;10.476;2023-03-05T10:12:12;46.58;;;44.65;;
75584;SDS011;64162;53.508;10.476;2023-03-05T10:14:45;43.85;;;41.90;;
75584;SDS011;64162;53.508;10.476;2023-03-05T10:20:03;39.72;;;37.72;;
75584;SDS011;64162;53.508;10.476;2023-03-05T10:22:55;41.50;;;39.80;;
75584;SDS011;64162;53.508;10.476;2023-03-05T10:42:42;37.83;;;36.20;;
75584;SDS011;64162;53.508;10.476;2023-03-05T10:45:16;32.00;;;30.67;;
75584;SDS011;64162;53.508;10.476;2023-03-05T10:48:03;54.15;;;52.13;;
75584;SDS011;64162;53.508;10.476;2023-03-05T10:50:39;38.75;;;37.05;;
75584;SDS011;64162;53.508;10.476;2023-03-05T10:55:53;35.97;;;34.55;;
75584;SDS011;64162;53.508;10.476;2023-03-05T10:58:23;33.92;;;32.63;;
75584;SDS011;64162;53.508;10.476;2023-03-05T11:00:59;35.30;;;33.67;;
75584;SDS011;64162;53.508;10.476;2023-03-05T11:06:39;37.08;;;35.47;;
75584;SDS011;64162;53.508;10.476;2023-03-05T11:09:14;42.05;;;40.38;;
75584;SDS011;64162;53.508;10.476;2023-03-05T11:20:27;37.38;;;35.90;;
75584;SDS011;64162;53.508;10.476;2023-03-05T11:23:14;46.97;;;45.15;;
75584;SDS011;64162;53.508;10.476;2023-03-05T11:28:17;36.70;;;35.08;;
75584;SDS011;64162;53.508;10.476;2023-03-05T11:31:01;36.17;;;34.72;;
75584;SDS011;64162;53.508;10.476;2023-03-05T11:33:33;28.63;;;27.23;;
75584;SDS011;64162;53.508;10.476;2023-03-05T11:38:51;38.50;;;37.05;;
75584;SDS011;64162;53.508;10.476;2023-03-05T11:41:22;32.85;;;31.55;;
75584;SDS011;64162;53.508;10.476;2023-03-05T11:43:52;36.88;;;35.47;;
75584;SDS011;64162;53.508;10.476;2023-03-05T11:46:20;36.13;;;34.63;;
75584;SDS011;64162;53.508;10.476;2023-03-05T11:48:47;40.55;;;39.00;;
75584;SDS011;64162;53.508;10.476;2023-03-05T11:53:49;33.92;;;32.33;;
75584;SDS011;64162;53.508;10.476;2023-03-05T11:56:24;38.28;;;36.63;;
75584;SDS011;64162;53.508;10.476;2023-03-05T11:58:57;36.30;;;34.80;;
75584;SDS011;64162;53.508;10.476;2023-03-05T12:01:29;38.38;;;36.92;;
75584;SDS011;64162;53.508;10.476;2023-03-05T12:03:57;39.72;;;38.13;;
75584;SDS011;64162;53.508;10.476;2023-03-05T12:06:32;43.80;;;42.17;;
75584;SDS011;64162;53.508;10.476;2023-03-05T12:09:11;33.45;;;32.22;;
75584;SDS011;64162;53.508;10.476;2023-03-05T12:11:44;40.85;;;39.35;;
75584;SDS011;64162;53.508;10.476;2023-03-05T12:17:23;39.10;;;37.50;;
75584;SDS011;64162;53.508;10.476;2023-03-05T12:20:13;48.90;;;46.90;;
75584;SDS011;64162;53.508;10.476;2023-03-05T12:22:48;41.28;;;39.63;;
75584;SDS011;64162;53.508;10.476;2023-03-05T12:25:23;38.38;;;36.92;;
75584;SDS011;64162;53.508;10.476;2023-03-05T12:27:58;35.33;;;34.03;;
75584;SDS011;64162;53.508;10.476;2023-03-05T12:30:51;35.90;;;34.35;;
75584;SDS011;64162;53.508;10.476;2023-03-05T12:38:42;33.72;;;32.38;;
75584;SDS011;64162;53.508;10.476;2023-03-05T12:46:33;37.13;;;35.72;;
75584;SDS011;64162;53.508;10.476;2023-03-05T12:51:46;37.88;;;36.47;;
75584;SDS011;64162;53.508;10.476;2023-03-05T12:54:26;35.67;;;34.38;;
75584;SDS011;64162;53.508;10.476;2023-03-05T12:57:01;36.80;;;35.25;;
75584;SDS011;64162;53.508;10.476;2023-03-05T12:59:48;40.72;;;39.20;;
75584;SDS011;64162;53.508;10.476;2023-03-05T13:02:29;49.83;;;47.97;;
75584;SDS011;64162;53.508;10.476;2023-03-05T13:05:01;60.95;;;58.50;;
75584;SDS011;64162;53.508;10.476;2023-03-05T13:07:33;39.67;;;38.05;;
75584;SDS011;64162;53.508;10.476;2023-03-05T13:10:00;37.45;;;35.70;;
75584;SDS011;64162;53.508;10.476;2023-03-05T13:12:27;36.33;;;34.97;;
75584;SDS011;64162;53.508;10.476;2023-03-05T13:17:40;45.28;;;43.58;;
75584;SDS011;64162;53.508;10.476;2023-03-05T13:28:44;40.25;;;38.30;;
75584;SDS011;64162;53.508;10.476;2023-03-05T13:36:58;42.70;;;40.92;;
75584;SDS011;64162;53.508;10.476;2023-03-05T13:39:53;42.58;;;40.80;;
75584;SDS011;64162;53.508;10.476;2023-03-05T13:42:28;43.80;;;41.63;;
75584;SDS011;64162;53.508;10.476;2023-03-05T13:44:58;40.58;;;38.88;;
75584;SDS011;64162;53.508;10.476;2023-03-05T13:47:27;57.47;;;55.08;;
75584;SDS011;64162;53.508;10.476;2023-03-05T13:49:57;41.15;;;39.55;;
75584;SDS011;64162;53.508;10.476;2023-03-05T13:52:26;44.45;;;41.50;;
75584;SDS011;64162;53.508;10.476;2023-03-05T13:54:55;38.15;;;36.55;;
75584;SDS011;64162;53.508;10.476;2023-03-05T14:00:26;36.83;;;35.42;;
75584;SDS011;64162;53.508;10.476;2023-03-05T14:03:22;38.75;;;37.25;;
75584;SDS011;64162;53.508;10.476;2023-03-05T14:05:52;37.95;;;36.15;;
75584;SDS011;64162;53.508;10.476;2023-03-05T14:08:23;41.72;;;39.90;;
75584;SDS011;64162;53.508;10.476;2023-03-05T14:10:54;43.53;;;41.72;;
75584;SDS011;64162;53.508;10.476;2023-03-05T14:13:23;40.42;;;38.85;;
75584;SDS011;64162;53.508;10.476;2023-03-05T14:16:06;42.97;;;41.13;;
75584;SDS011;64162;53.508;10.476;2023-03-05T14:18:34;52.90;;;50.25;;
75584;SDS011;64162;53.508;10.476;2023-03-05T14:21:02;48.97;;;46.15;;
75584;SDS011;64162;53.508;10.476;2023-03-05T14:23:38;39.03;;;37.38;;
75584;SDS011;64162;53.508;10.476;2023-03-05T14:28:55;40.00;;;38.50;;
75584;SDS011;64162;53.508;10.476;2023-03-05T14:31:26;45.50;;;43.60;;
75584;SDS011;64162;53.508;10.476;2023-03-05T14:33:58;59.63;;;57.00;;
75584;SDS011;64162;53.508;10.476;2023-03-05T14:36:27;61.88;;;59.45;;
75584;SDS011;64162;53.508;10.476;2023-03-05T14:38:54;47.45;;;45.38;;
75584;SDS011;64162;53.508;10.476;2023-03-05T14:41:40;49.78;;;47.67;;
75584;SDS011;64162;53.508;10.476;2023-03-05T14:44:14;47.08;;;44.92;;
75584;SDS011;64162;53.508;10.476;2023-03-05T14:46:42;44.63;;;42.83;;
75584;SDS011;64162;53.508;10.476;2023-03-05T14:49:13;44.13;;;42.22;;
75584;SDS011;64162;53.508;10.476;2023-03-05T14:51:40;42.92;;;41.10;;
75584;SDS011;64162;53.508;10.476;2023-03-05T14:54:21;44.35;;;42.53;;
75584;SDS011;64162;53.508;10.476;2023-03-05T14:56:50;41.47;;;39.35;;
75584;SDS011;64162;53.508;10.476;2023-03-05T14:59:17;39.67;;;38.08;;
75584;SDS011;64162;53.508;10.476;2023-03-05T15:01:46;39.45;;;37.72;;
75584;SDS011;64162;53.508;10.476;2023-03-05T15:04:12;45.58;;;43.88;;
75584;SDS011;64162;53.508;10.476;2023-03-05T15:06:43;32.75;;;31.25;;
75584;SDS011;64162;53.508;10.476;2023-03-05T15:09:16;50.28;;;48.20;;
75584;SDS011;64162;53.508;10.476;2023-03-05T15:11:45;40.38;;;38.67;;
75584;SDS011;64162;53.508;10.476;2023-03-05T15:14:11;44.80;;;43.00;;
75584;SDS011;64162;53.508;10.476;2023-03-05T15:16:38;39.58;;;37.85;;
75584;SDS011;64162;53.508;10.476;2023-03-05T15:19:11;46.90;;;44.33;;
75584;SDS011;64162;53.508;10.476;2023-03-05T15:21:38;70.30;;;66.88;;
75584;SDS011;64162;53.508;10.476;2023-03-05T15:24:05;47.55;;;45.22;;
75584;SDS011;64162;53.508;10.476;2023-03-05T15:26:32;39.88;;;37.88;;
75584;SDS011;64162;53.508;10.476;2023-03-05T15:28:59;40.55;;;38.40;;
75584;SDS011;64162;53.508;10.476;2023-03-05T15:31:26;32.67;;;31.15;;
75584;SDS011;64162;53.508;10.476;2023-03-05T15:33:55;42.00;;;39.90;;
75584;SDS011;64162;53.508;10.476;2023-03-05T15:36:22;41.80;;;39.92;;
75584;SDS011;64162;53.508;10.476;2023-03-05T15:38:48;35.42;;;33.80;;
75584;SDS011;64162;53.508;10.476;2023-03-05T15:41:15;36.40;;;34.90;;
75584;SDS011;64162;53.508;10.476;2023-03-05T15:43:42;33.30;;;31.58;;